createdAt,value
2023-02-19T00:02:03.854Z,9.30
2023-02-19T00:04:33.178Z,9.30
2023-02-19T00:07:01.839Z,9.27
2023-02-19T00:09:31.488Z,9.20
2023-02-19T00:12:00.668Z,9.15
2023-02-19T00:14:29.120Z,9.12
2023-02-19T00:16:57.852Z,9.11
2023-02-19T00:19:26.277Z,9.10
2023-02-19T00:21:55.340Z,9.07
2023-02-19T00:24:23.449Z,9.05
2023-02-19T00:26:51.884Z,9.10
2023-02-19T00:29:21.213Z,9.13
2023-02-19T00:31:52.041Z,9.15
2023-02-19T00:34:21.228Z,9.14
2023-02-19T00:36:50.409Z,9.14
2023-02-19T00:39:19.147Z,9.14
2023-02-19T00:41:47.498Z,9.14
2023-02-19T00:44:16.017Z,9.15
2023-02-19T00:46:47.475Z,9.15
2023-02-19T00:49:22.778Z,9.08
2023-02-19T00:51:51.910Z,9.02
2023-02-19T00:54:20.158Z,9.01
2023-02-19T00:56:48.649Z,8.99
2023-02-19T00:59:20.609Z,8.94
2023-02-19T01:01:49.941Z,8.93
2023-02-19T01:04:18.408Z,8.89
2023-02-19T01:06:46.388Z,8.81
2023-02-19T01:09:15.205Z,8.79
2023-02-19T01:11:43.836Z,8.79
2023-02-19T01:14:12.441Z,8.78
2023-02-19T01:16:41.246Z,8.76
2023-02-19T01:19:09.615Z,8.78
2023-02-19T01:21:38.616Z,8.77
2023-02-19T01:24:07.998Z,8.74
2023-02-19T01:26:36.960Z,8.76
2023-02-19T01:29:05.408Z,8.78
2023-02-19T01:31:34.458Z,8.83
2023-02-19T01:34:03.492Z,8.84
2023-02-19T01:36:32.691Z,8.81
2023-02-19T01:39:05.238Z,8.70
2023-02-19T01:41:35.863Z,8.65
2023-02-19T01:44:09.340Z,8.54
2023-02-19T01:46:38.406Z,8.52
2023-02-19T01:49:09.386Z,8.53
2023-02-19T01:51:39.541Z,8.53
2023-02-19T01:54:09.884Z,8.54
2023-02-19T01:56:43.192Z,8.46
2023-02-19T01:59:11.466Z,8.41
2023-02-19T02:01:40.950Z,8.38
2023-02-19T02:04:13.491Z,8.34
2023-02-19T02:06:56.646Z,8.31
2023-02-19T02:09:47.109Z,8.30
2023-02-19T02:12:16.784Z,8.26
2023-02-19T02:14:46.403Z,8.21
2023-02-19T02:17:34.578Z,8.16
2023-02-19T02:20:26.792Z,8.08
2023-02-19T02:23:07.261Z,7.92
2023-02-19T02:25:51.876Z,7.87
2023-02-19T02:28:41.718Z,7.90
2023-02-19T02:31:21.241Z,7.90
2023-02-19T02:33:58.644Z,7.90
2023-02-19T02:36:38.679Z,7.81
2023-02-19T02:39:12.258Z,7.75
2023-02-19T02:42:13.742Z,7.65
2023-02-19T02:44:42.201Z,7.56
2023-02-19T02:47:29.715Z,7.49
2023-02-19T02:50:07.554Z,7.50
2023-02-19T02:52:53.896Z,7.49
2023-02-19T02:55:22.068Z,7.40
2023-02-19T02:57:51.185Z,7.26
2023-02-19T03:00:20.805Z,7.16
2023-02-19T03:02:49.253Z,7.03
2023-02-19T03:05:37.424Z,7.05
2023-02-19T03:08:25.176Z,7.04
2023-02-19T03:11:20.749Z,7.03
2023-02-19T03:14:06.731Z,6.99
2023-02-19T03:16:53.494Z,7.05
2023-02-19T03:19:27.946Z,7.12
2023-02-19T03:22:10.365Z,7.19
2023-02-19T03:25:00.489Z,7.23
2023-02-19T03:27:31.705Z,7.32
2023-02-19T03:30:02.346Z,7.37
2023-02-19T03:32:56.139Z,7.37
2023-02-19T03:35:26.739Z,7.36
2023-02-19T03:38:02.619Z,7.36
2023-02-19T03:40:31.812Z,7.38
2023-02-19T03:43:12.764Z,7.37
2023-02-19T03:46:04.832Z,7.37
2023-02-19T03:48:35.355Z,7.32
2023-02-19T03:51:09.477Z,7.29
2023-02-19T03:53:37.320Z,7.26
2023-02-19T03:56:09.170Z,7.17
2023-02-19T03:58:45.584Z,7.09
2023-02-19T04:01:20.199Z,7.03
2023-02-19T04:04:05.834Z,7.06
2023-02-19T04:06:34.439Z,6.99
2023-02-19T04:09:03.213Z,6.94
2023-02-19T04:11:31.171Z,7.00
2023-02-19T04:14:08.666Z,7.00
2023-02-19T04:16:37.933Z,7.01
2023-02-19T04:19:10.022Z,7.03
2023-02-19T04:21:39.723Z,7.01
2023-02-19T04:24:10.118Z,6.95
2023-02-19T04:26:38.786Z,6.84
2023-02-19T04:29:07.067Z,6.80
2023-02-19T04:31:35.916Z,6.77
2023-02-19T04:34:04.964Z,6.79
2023-02-19T04:36:36.142Z,6.84
2023-02-19T04:39:04.366Z,6.85
2023-02-19T04:41:33.076Z,6.86
2023-02-19T04:44:01.697Z,6.86
2023-02-19T04:46:30.316Z,6.88
2023-02-19T04:48:59.179Z,6.95
2023-02-19T04:51:27.658Z,7.03
2023-02-19T04:53:56.477Z,7.10
2023-02-19T04:56:25.144Z,7.19
2023-02-19T04:58:53.941Z,7.25
2023-02-19T05:01:22.285Z,7.30
2023-02-19T05:03:54.050Z,7.37
2023-02-19T05:06:23.135Z,7.43
2023-02-19T05:08:51.509Z,7.45
2023-02-19T05:11:19.389Z,7.46
2023-02-19T05:13:47.630Z,7.51
2023-02-19T05:16:16.369Z,7.47
2023-02-19T05:18:45.876Z,7.46
2023-02-19T05:21:17.290Z,7.48
2023-02-19T05:23:46.310Z,7.48
2023-02-19T05:26:18.365Z,7.51
2023-02-19T05:28:48.962Z,7.50
2023-02-19T05:31:18.501Z,7.49
2023-02-19T05:33:51.400Z,7.50
2023-02-19T05:36:19.359Z,7.51
2023-02-19T05:38:48.816Z,7.53
2023-02-19T05:41:21.345Z,7.52
2023-02-19T05:43:50.841Z,7.57
2023-02-19T05:46:21.301Z,7.57
2023-02-19T05:48:50.324Z,7.53
2023-02-19T05:51:23.014Z,7.54
2023-02-19T05:53:58.648Z,7.58
2023-02-19T05:56:31.393Z,7.53
2023-02-19T05:58:59.579Z,7.56
2023-02-19T06:01:32.363Z,7.56
2023-02-19T06:04:01.454Z,7.62
2023-02-19T06:06:30.604Z,7.64
2023-02-19T06:08:59.818Z,7.69
2023-02-19T06:11:29.366Z,7.76
2023-02-19T06:13:58.883Z,7.76
2023-02-19T06:16:26.504Z,7.79
2023-02-19T06:18:57.936Z,7.83
2023-02-19T06:21:27.014Z,7.89
2023-02-19T06:23:55.782Z,7.91
2023-02-19T06:26:27.778Z,7.98
2023-02-19T06:28:57.182Z,8.01
2023-02-19T06:31:26.061Z,8.00
2023-02-19T06:33:55.179Z,8.06
2023-02-19T06:36:23.184Z,8.08
2023-02-19T06:38:51.716Z,8.01
2023-02-19T06:41:20.537Z,7.97
2023-02-19T06:43:49.647Z,7.99
2023-02-19T06:46:20.959Z,8.00
2023-02-19T06:48:50.130Z,8.04
2023-02-19T06:51:24.521Z,8.06
2023-02-19T06:53:52.362Z,8.04
2023-02-19T06:56:26.363Z,8.05
2023-02-19T06:58:59.863Z,7.97
2023-02-19T07:01:28.157Z,7.98
2023-02-19T07:03:56.179Z,7.94
2023-02-19T07:06:24.620Z,7.96
2023-02-19T07:08:52.492Z,8.02
2023-02-19T07:11:20.449Z,8.07
2023-02-19T07:13:48.974Z,8.07
2023-02-19T07:16:18.235Z,8.14
2023-02-19T07:18:46.300Z,8.21
2023-02-19T07:21:15.414Z,8.31
2023-02-19T07:23:43.686Z,8.43
2023-02-19T07:26:15.140Z,8.49
2023-02-19T07:28:44.023Z,8.54
2023-02-19T07:31:12.990Z,8.53
2023-02-19T07:33:43.777Z,8.47
2023-02-19T07:36:11.842Z,8.44
2023-02-19T07:38:41.143Z,8.42
2023-02-19T07:41:16.174Z,8.42
2023-02-19T07:43:43.764Z,8.45
2023-02-19T07:46:13.875Z,8.34
2023-02-19T07:48:41.969Z,8.33
2023-02-19T07:51:11.980Z,8.30
2023-02-19T07:53:39.727Z,8.33
2023-02-19T07:56:08.038Z,8.30
2023-02-19T07:58:35.953Z,8.26
2023-02-19T08:01:16.781Z,8.24
2023-02-19T08:03:44.968Z,8.28
2023-02-19T08:06:13.664Z,8.30
2023-02-19T08:08:42.051Z,8.35
2023-02-19T08:11:29.117Z,8.30
2023-02-19T08:13:56.799Z,8.35
2023-02-19T08:16:40.706Z,8.40
2023-02-19T08:19:11.116Z,8.34
2023-02-19T08:21:38.657Z,8.33
2023-02-19T08:24:07.515Z,8.31
2023-02-19T08:26:35.290Z,8.33
2023-02-19T08:29:03.828Z,8.29
2023-02-19T08:31:32.144Z,8.39
2023-02-19T08:34:00.241Z,8.37
2023-02-19T08:36:28.171Z,8.32
2023-02-19T08:38:56.564Z,8.20
2023-02-19T08:41:24.305Z,8.18
2023-02-19T08:43:52.629Z,8.28
2023-02-19T08:46:20.461Z,8.33
2023-02-19T08:48:48.540Z,8.29
2023-02-19T08:51:16.685Z,8.37
2023-02-19T08:53:45.118Z,8.38
2023-02-19T08:56:14.256Z,8.38
2023-02-19T08:58:42.381Z,8.41
2023-02-19T09:01:15.082Z,8.54
2023-02-19T09:03:42.664Z,8.68
2023-02-19T09:06:16.949Z,8.77
2023-02-19T09:08:44.271Z,8.89
2023-02-19T09:11:12.057Z,9.05
2023-02-19T09:13:40.313Z,9.06
2023-02-19T09:16:08.605Z,9.06
2023-02-19T09:18:36.236Z,9.13
2023-02-19T09:21:05.155Z,9.17
2023-02-19T09:23:36.200Z,9.21
2023-02-19T09:26:06.801Z,9.30
2023-02-19T09:28:33.987Z,9.33
2023-02-19T09:31:09.699Z,9.35
2023-02-19T09:33:38.257Z,9.34
2023-02-19T09:36:07.870Z,9.40
2023-02-19T09:38:35.896Z,9.40
2023-02-19T09:41:31.514Z,9.44
2023-02-19T09:43:59.094Z,9.41
2023-02-19T09:46:46.878Z,9.54
2023-02-19T09:49:16.203Z,9.59
2023-02-19T09:51:48.744Z,9.68
2023-02-19T09:54:22.018Z,9.61
2023-02-19T09:56:50.335Z,9.67
2023-02-19T09:59:28.485Z,9.66
2023-02-19T10:02:20.225Z,9.57
2023-02-19T10:04:53.835Z,9.68
2023-02-19T10:07:23.474Z,9.75
2023-02-19T10:09:58.304Z,9.79
2023-02-19T10:12:30.310Z,9.77
2023-02-19T10:15:05.582Z,9.79
2023-02-19T10:17:34.754Z,9.79
2023-02-19T10:20:03.941Z,9.87
2023-02-19T10:22:32.219Z,9.92
2023-02-19T10:24:59.414Z,9.94
2023-02-19T10:27:32.510Z,9.89
2023-02-19T10:29:59.795Z,10.01
2023-02-19T10:32:29.524Z,10.26
2023-02-19T10:35:13.581Z,10.35
2023-02-19T10:37:48.463Z,10.46
2023-02-19T10:40:28.362Z,10.53
2023-02-19T10:42:58.138Z,10.65
2023-02-19T10:45:31.207Z,10.81
2023-02-19T10:47:58.829Z,10.87
2023-02-19T10:50:29.151Z,11.01
2023-02-19T10:52:57.533Z,11.17
2023-02-19T10:55:36.715Z,11.47
2023-02-19T10:58:28.002Z,11.78
2023-02-19T11:01:31.021Z,12.09
2023-02-19T11:04:18.548Z,12.27
2023-02-19T11:07:09.899Z,12.38
2023-02-19T11:09:41.018Z,12.40
2023-02-19T11:12:09.661Z,12.23
2023-02-19T11:14:37.594Z,12.38
2023-02-19T11:17:05.742Z,12.62
2023-02-19T11:19:40.285Z,12.57
2023-02-19T11:22:30.126Z,12.75
2023-02-19T11:24:59.467Z,12.73
2023-02-19T11:27:28.593Z,12.92
2023-02-19T11:30:16.148Z,13.00
2023-02-19T11:32:44.259Z,13.11
2023-02-19T11:35:25.341Z,13.16
2023-02-19T11:37:56.856Z,13.09
2023-02-19T11:40:37.820Z,13.20
2023-02-19T11:43:42.018Z,13.43
2023-02-19T11:46:30.559Z,13.54
2023-02-19T11:49:18.765Z,13.59
2023-02-19T11:51:52.843Z,13.49
2023-02-19T11:54:30.763Z,13.66
2023-02-19T11:57:25.512Z,13.82
2023-02-19T12:00:22.928Z,14.00
2023-02-19T12:03:04.826Z,14.16
2023-02-19T12:06:09.390Z,14.23
2023-02-19T12:09:18.743Z,14.32
2023-02-19T12:11:50.368Z,14.53
2023-02-19T12:14:51.750Z,14.72
2023-02-19T12:17:31.261Z,14.82
2023-02-19T12:20:11.456Z,14.98
2023-02-19T12:22:44.182Z,15.24
2023-02-19T12:25:26.223Z,15.42
2023-02-19T12:28:07.727Z,15.64
2023-02-19T12:30:45.471Z,16.02
2023-02-19T12:33:40.280Z,16.33
2023-02-19T12:36:10.347Z,16.57
2023-02-19T12:38:45.974Z,16.70
2023-02-19T12:41:37.958Z,16.97
2023-02-19T12:44:30.234Z,17.11
2023-02-19T12:46:58.854Z,17.17
2023-02-19T12:49:27.163Z,17.38
2023-02-19T12:51:57.604Z,17.38
2023-02-19T12:54:36.234Z,17.37
2023-02-19T12:57:05.838Z,17.30
2023-02-19T12:59:52.783Z,17.49
2023-02-19T13:02:34.608Z,17.44
2023-02-19T13:05:20.039Z,17.51
2023-02-19T13:08:22.541Z,17.96
2023-02-19T13:10:58.928Z,18.29
2023-02-19T13:13:47.943Z,18.59
2023-02-19T13:16:19.015Z,18.47
2023-02-19T13:19:25.224Z,18.44
2023-02-19T13:22:15.934Z,18.55
2023-02-19T13:24:43.522Z,18.29
2023-02-19T13:27:28.822Z,18.22
2023-02-19T13:30:26.561Z,18.20
2023-02-19T13:33:04.897Z,18.07
2023-02-19T13:35:53.598Z,18.48
2023-02-19T13:38:21.564Z,18.72
2023-02-19T13:40:59.097Z,18.82
2023-02-19T13:43:40.111Z,18.99
2023-02-19T13:46:08.832Z,19.01
2023-02-19T13:48:37.999Z,19.28
2023-02-19T13:51:21.640Z,19.39
2023-02-19T13:53:48.282Z,19.34
2023-02-19T13:56:34.251Z,19.63
2023-02-19T13:59:38.689Z,19.96
2023-02-19T14:02:26.671Z,19.71
2023-02-19T14:04:55.655Z,19.71
2023-02-19T14:07:28.816Z,19.73
2023-02-19T14:09:56.776Z,19.88
2023-02-19T14:12:24.662Z,19.85
2023-02-19T14:14:55.714Z,19.29
2023-02-19T14:17:28.694Z,18.64
2023-02-19T14:19:59.639Z,18.19
2023-02-19T14:22:45.335Z,17.94
2023-02-19T14:25:27.465Z,18.01
2023-02-19T14:28:07.714Z,18.04
2023-02-19T14:30:36.075Z,17.86
2023-02-19T14:33:10.676Z,17.56
2023-02-19T14:35:47.037Z,17.44
2023-02-19T14:38:24.852Z,17.34
2023-02-19T14:40:53.297Z,17.37
2023-02-19T14:43:21.511Z,17.50
2023-02-19T14:46:10.581Z,17.76
2023-02-19T14:48:42.171Z,18.13
2023-02-19T14:51:21.127Z,18.46
2023-02-19T14:53:54.486Z,18.77
2023-02-19T14:56:25.268Z,19.10
2023-02-19T14:59:14.096Z,19.45
2023-02-19T15:01:42.193Z,19.56
2023-02-19T15:04:22.489Z,19.73
2023-02-19T15:06:50.014Z,19.72
2023-02-19T15:09:17.603Z,19.46
2023-02-19T15:11:45.530Z,19.10
2023-02-19T15:14:17.509Z,19.07
2023-02-19T15:16:45.486Z,18.99
2023-02-19T15:19:13.992Z,18.94
2023-02-19T15:21:45.782Z,18.94
2023-02-19T15:24:13.027Z,18.81
2023-02-19T15:26:42.356Z,18.55
2023-02-19T15:29:14.803Z,18.38
2023-02-19T15:31:49.792Z,18.42
2023-02-19T15:34:29.257Z,18.37
2023-02-19T15:36:58.734Z,18.13
2023-02-19T15:39:30.676Z,17.99
2023-02-19T15:42:00.396Z,17.78
2023-02-19T15:44:41.380Z,17.65
2023-02-19T15:47:16.203Z,17.59
2023-02-19T15:50:08.924Z,17.43
2023-02-19T15:52:51.407Z,17.45
2023-02-19T15:55:45.936Z,17.45
2023-02-19T15:58:23.371Z,17.43
2023-02-19T16:00:50.812Z,17.41
2023-02-19T16:03:22.458Z,17.32
2023-02-19T16:06:02.931Z,17.21
2023-02-19T16:08:32.892Z,17.11
2023-02-19T16:11:01.198Z,16.93
2023-02-19T16:13:29.752Z,16.64
2023-02-19T16:16:06.292Z,16.33
2023-02-19T16:18:34.329Z,15.92
2023-02-19T16:21:01.839Z,15.56
2023-02-19T16:23:29.047Z,15.24
2023-02-19T16:26:02.326Z,14.92
2023-02-19T16:28:31.508Z,14.67
2023-02-19T16:31:03.944Z,14.44
2023-02-19T16:33:33.755Z,14.25
2023-02-19T16:36:41.572Z,14.00
2023-02-19T16:39:08.602Z,13.85
2023-02-19T16:41:41.868Z,13.73
2023-02-19T16:44:21.094Z,13.54
2023-02-19T16:46:53.033Z,13.44
2023-02-19T16:49:20.365Z,13.31
2023-02-19T16:51:48.439Z,13.21
2023-02-19T16:54:16.640Z,13.08
2023-02-19T16:56:44.982Z,12.98
2023-02-19T16:59:12.836Z,12.92
2023-02-19T17:01:40.484Z,12.89
2023-02-19T17:04:09.962Z,12.83
2023-02-19T17:06:40.622Z,12.83
2023-02-19T17:09:08.650Z,12.77
2023-02-19T17:11:36.897Z,12.73
2023-02-19T17:14:04.903Z,12.72
2023-02-19T17:16:40.066Z,12.68
2023-02-19T17:19:15.864Z,12.64
2023-02-19T17:21:44.390Z,12.59
2023-02-19T17:24:12.182Z,12.54
2023-02-19T17:26:40.221Z,12.46
2023-02-19T17:29:08.540Z,12.38
2023-02-19T17:31:36.279Z,12.37
2023-02-19T17:34:04.751Z,12.33
2023-02-19T17:36:31.874Z,12.35
2023-02-19T17:38:59.500Z,12.34
2023-02-19T17:41:28.109Z,12.31
2023-02-19T17:43:56.458Z,12.26
2023-02-19T17:46:26.156Z,12.27
2023-02-19T17:48:53.979Z,12.27
2023-02-19T17:51:22.297Z,12.16
2023-02-19T17:53:50.581Z,12.13
2023-02-19T17:56:21.661Z,12.11
2023-02-19T17:58:49.638Z,12.05
2023-02-19T18:01:18.090Z,12.03
2023-02-19T18:03:46.518Z,11.97
2023-02-19T18:06:14.125Z,11.90
2023-02-19T18:08:48.047Z,11.87
2023-02-19T18:11:15.275Z,11.76
2023-02-19T18:13:43.283Z,11.69
2023-02-19T18:16:11.100Z,11.60
2023-02-19T18:18:39.592Z,11.56
2023-02-19T18:21:08.603Z,11.51
2023-02-19T18:23:36.149Z,11.52
2023-02-19T18:26:03.860Z,11.56
2023-02-19T18:28:34.936Z,11.55
2023-02-19T18:31:02.876Z,11.59
2023-02-19T18:33:30.406Z,11.63
2023-02-19T18:35:58.590Z,11.65
2023-02-19T18:38:26.183Z,11.68
2023-02-19T18:40:54.449Z,11.72
2023-02-19T18:43:22.545Z,11.76
2023-02-19T18:45:51.270Z,11.78
2023-02-19T18:48:19.215Z,11.80
2023-02-19T18:50:47.596Z,11.84
2023-02-19T18:53:15.201Z,11.87
2023-02-19T18:55:46.200Z,11.91
2023-02-19T18:58:13.770Z,11.91
2023-02-19T19:00:41.841Z,11.90
2023-02-19T19:03:09.817Z,11.91
2023-02-19T19:05:37.846Z,11.94
2023-02-19T19:08:06.355Z,11.93
2023-02-19T19:10:33.974Z,11.93
2023-02-19T19:13:01.490Z,11.91
2023-02-19T19:15:29.464Z,11.91
2023-02-19T19:17:57.030Z,11.91
2023-02-19T19:20:24.709Z,11.89
2023-02-19T19:22:52.627Z,11.93
2023-02-19T19:25:20.729Z,11.96
2023-02-19T19:27:50.686Z,11.94
2023-02-19T19:30:20.572Z,11.97
2023-02-19T19:32:52.156Z,11.99
2023-02-19T19:35:20.420Z,12.03
2023-02-19T19:37:48.536Z,12.02
2023-02-19T19:40:17.452Z,12.01
2023-02-19T19:42:45.386Z,12.04
2023-02-19T19:45:13.869Z,12.06
2023-02-19T19:47:41.455Z,12.05
2023-02-19T19:50:12.122Z,12.05
2023-02-19T19:52:39.897Z,12.04
2023-02-19T19:55:09.656Z,12.06
2023-02-19T19:57:40.325Z,12.08
2023-02-19T20:00:10.444Z,12.09
2023-02-19T20:02:38.906Z,12.10
2023-02-19T20:05:08.070Z,12.10
2023-02-19T20:07:36.235Z,12.11
2023-02-19T20:10:05.428Z,12.13
2023-02-19T20:12:33.403Z,12.13
2023-02-19T20:15:01.351Z,12.09
2023-02-19T20:17:29.124Z,12.04
2023-02-19T20:19:56.586Z,11.96
2023-02-19T20:22:24.175Z,11.94
2023-02-19T20:24:52.388Z,11.95
2023-02-19T20:27:20.182Z,11.93
2023-02-19T20:29:47.351Z,11.92
2023-02-19T20:32:18.557Z,11.88
2023-02-19T20:34:46.923Z,11.82
2023-02-19T20:37:15.387Z,11.77
2023-02-19T20:39:43.390Z,11.70
2023-02-19T20:42:11.541Z,11.70
2023-02-19T20:44:39.046Z,11.70
2023-02-19T20:47:07.600Z,11.70
2023-02-19T20:49:35.550Z,11.69
2023-02-19T20:52:05.945Z,11.69
2023-02-19T20:54:34.469Z,11.67
2023-02-19T20:57:04.183Z,11.71
2023-02-19T20:59:35.113Z,11.74
2023-02-19T21:02:03.509Z,11.78
2023-02-19T21:04:31.057Z,11.84
2023-02-19T21:06:58.485Z,11.86
2023-02-19T21:09:26.563Z,11.90
2023-02-19T21:11:54.603Z,11.97
2023-02-19T21:14:22.158Z,12.00
2023-02-19T21:16:50.862Z,12.04
2023-02-19T21:19:19.907Z,12.07
2023-02-19T21:21:48.264Z,12.04
2023-02-19T21:24:15.776Z,12.05
2023-02-19T21:26:43.629Z,12.02
2023-02-19T21:29:15.089Z,12.03
2023-02-19T21:31:44.444Z,12.06
2023-02-19T21:34:13.459Z,12.12
2023-02-19T21:36:42.834Z,12.10
2023-02-19T21:39:10.927Z,12.08
2023-02-19T21:41:38.566Z,12.12
2023-02-19T21:44:06.480Z,12.09
2023-02-19T21:46:34.070Z,12.10
2023-02-19T21:49:01.814Z,12.10
2023-02-19T21:51:31.778Z,12.09
2023-02-19T21:53:58.950Z,12.09
2023-02-19T21:56:28.296Z,12.08
2023-02-19T21:58:55.904Z,12.09
2023-02-19T22:01:30.786Z,12.13
2023-02-19T22:03:58.814Z,12.15
2023-02-19T22:06:29.192Z,12.17
2023-02-19T22:08:56.961Z,12.19
2023-02-19T22:11:25.002Z,12.20
2023-02-19T22:13:52.714Z,12.16
2023-02-19T22:16:19.938Z,12.19
2023-02-19T22:18:49.206Z,12.17
2023-02-19T22:21:19.363Z,12.17
2023-02-19T22:23:48.327Z,12.15
2023-02-19T22:26:32.717Z,12.16
2023-02-19T22:29:02.929Z,12.10
2023-02-19T22:31:32.467Z,12.06
2023-02-19T22:34:00.818Z,12.01
2023-02-19T22:36:37.046Z,12.00
2023-02-19T22:39:06.162Z,12.00
2023-02-19T22:41:36.289Z,11.95
2023-02-19T22:44:04.183Z,11.95
2023-02-19T22:46:31.425Z,11.91
2023-02-19T22:48:59.262Z,11.87
2023-02-19T22:51:27.077Z,11.84
2023-02-19T22:53:57.276Z,11.81
2023-02-19T22:56:28.581Z,11.78
2023-02-19T22:58:56.120Z,11.76
2023-02-19T23:01:24.012Z,11.69
2023-02-19T23:03:52.882Z,11.72
2023-02-19T23:06:34.410Z,11.74
2023-02-19T23:09:09.806Z,11.74
2023-02-19T23:11:39.299Z,11.74
2023-02-19T23:14:08.414Z,11.72
2023-02-19T23:16:36.805Z,11.72
2023-02-19T23:19:05.091Z,11.72
2023-02-19T23:21:33.338Z,11.71
2023-02-19T23:24:01.171Z,11.68
2023-02-19T23:26:28.723Z,11.69
2023-02-19T23:28:57.084Z,11.70
2023-02-19T23:31:29.666Z,11.70
2023-02-19T23:33:57.767Z,11.70
2023-02-19T23:36:25.200Z,11.70
2023-02-19T23:38:52.384Z,11.77
2023-02-19T23:41:20.360Z,11.81
2023-02-19T23:43:48.074Z,11.83
2023-02-19T23:46:17.536Z,11.84
2023-02-19T23:48:46.335Z,11.85
2023-02-19T23:51:14.129Z,11.90
2023-02-19T23:53:44.038Z,11.87
2023-02-19T23:56:12.608Z,11.87
2023-02-19T23:58:40.983Z,11.86
